Accueil
METAR-TAF:

METAR-TAF

Aéroports :

Plaisance, Italie

latitude: 44-55N, longitude: 009-44E, altitude: 134 m

Observation

Le bulletin a été fait il y a 24 minutes, à 09:55 UTC
Vent 8 kt de ouest, variant entre sud-ouest et nord/nord-ouest
Température 10°C
Humidité 100%
Pression 1005 hPa
Visibilité 10 km ou plus
Nuages épars à une hauteur de 2000 ft
Nuages fragmentés à une hauteur de 3500 ft
pluie faible

METAR: LIMS 280955Z 27008KT 230V330 9999 -RA SCT020 BKN035 10/10 Q1005

Heure: 12:19 (10:19 UTC)

Prévision

Le bulletin a été fait il y a 2 heures et 19 minutes, à 08:00 UTC
Prévision valable du 28 à 09 UTC au 28 à 18 UTC
Vent 15 kt de nord/nord-ouest
Visibilité 10 km ou plus
Nuages épars à une hauteur de 3000 ft
Nuages fragmentés à une hauteur de 8000 ft
Temporairement
du 28 à 09 UTC au 28 à 11 UTC
Visibilité: 8000 m
pluie

TAF: LIMS 280800Z 2809/2818 33015KT 9999 SCT030 BKN080 TEMPO 2809/2811 8000 RA

Observations et prévisions météorologiques de plus de 4000 aéroports (messages METAR et TAF).

Les stations disponibles sont représentées par des disques jaunes et rouges sur la carte.

Passer la souris dessus pour voir le nom de la station.

Cliquer dessus pour voir les observations et prévisions météorologiques.

Pour changer de carte: cliquez sur les boutons verts avec une croix noire pour zoomer, sur le bouton vert avec un tiret pour effectuer un zoom arrière, ou sur les flèches vertes pour les cartes adjacentes.


METAR-TAF: